createdAt,value
2018-03-16T00:00:18.031Z,0.00
2018-03-16T00:01:18.027Z,0.00
2018-03-16T00:02:18.022Z,0.00
2018-03-16T00:03:18.020Z,0.00
2018-03-16T00:04:18.016Z,0.00
2018-03-16T00:05:18.014Z,0.00
2018-03-16T00:06:18.007Z,0.00
2018-03-16T00:07:18.003Z,0.00
2018-03-16T00:08:18.001Z,0.00
2018-03-16T00:09:17.996Z,0.00
2018-03-16T00:10:17.991Z,0.00
2018-03-16T00:11:17.989Z,0.00
2018-03-16T00:12:17.984Z,0.00
2018-03-16T00:13:17.984Z,0.00
2018-03-16T00:14:17.976Z,0.00
2018-03-16T00:15:17.972Z,0.00
2018-03-16T00:16:17.969Z,0.00
2018-03-16T00:17:17.964Z,0.00
2018-03-16T00:18:17.962Z,0.00
2018-03-16T00:19:17.957Z,0.00
2018-03-16T00:20:17.951Z,0.00
2018-03-16T00:21:17.949Z,0.00
2018-03-16T00:22:17.945Z,0.00
2018-03-16T00:23:17.941Z,0.00
2018-03-16T00:24:17.936Z,0.00
2018-03-16T00:25:17.933Z,0.00
2018-03-16T00:26:17.928Z,0.00
2018-03-16T00:27:17.925Z,0.00
2018-03-16T00:28:17.921Z,0.00
2018-03-16T00:29:17.917Z,0.00
2018-03-16T00:30:17.912Z,0.00
2018-03-16T00:31:17.909Z,0.00
2018-03-16T00:32:17.906Z,0.00
2018-03-16T00:33:17.901Z,0.00
2018-03-16T00:34:17.897Z,0.00
2018-03-16T00:35:17.892Z,0.00
2018-03-16T00:36:17.887Z,0.00
2018-03-16T00:37:17.884Z,0.00
2018-03-16T00:38:17.879Z,0.00
2018-03-16T00:39:17.875Z,0.00
2018-03-16T00:40:17.871Z,0.00
2018-03-16T00:41:17.867Z,0.00
2018-03-16T00:42:17.864Z,0.00
2018-03-16T00:43:17.861Z,0.00
2018-03-16T00:44:17.855Z,0.00
2018-03-16T00:45:17.851Z,0.00
2018-03-16T00:46:17.845Z,0.00
2018-03-16T00:47:17.841Z,0.00
2018-03-16T00:48:17.837Z,0.00
2018-03-16T00:49:17.835Z,0.00
2018-03-16T00:50:17.828Z,0.00
2018-03-16T00:51:17.827Z,0.00
2018-03-16T00:52:17.820Z,0.00
2018-03-16T00:53:17.817Z,0.00
2018-03-16T00:54:17.813Z,0.00
2018-03-16T00:55:17.808Z,0.00
2018-03-16T00:56:17.806Z,0.00
2018-03-16T00:57:17.799Z,0.00
2018-03-16T00:58:17.795Z,0.00
2018-03-16T00:59:17.790Z,0.00
2018-03-16T01:00:17.787Z,0.00
2018-03-16T01:01:17.784Z,0.00
2018-03-16T01:02:17.780Z,0.00
2018-03-16T01:03:17.775Z,0.00
2018-03-16T01:04:17.771Z,0.00
2018-03-16T01:05:17.765Z,0.00
2018-03-16T01:06:17.760Z,0.00
2018-03-16T01:07:17.760Z,0.00
2018-03-16T01:08:17.752Z,0.00
2018-03-16T01:09:17.748Z,0.00
2018-03-16T01:10:17.744Z,0.00
2018-03-16T01:11:17.738Z,0.00
2018-03-16T01:12:17.739Z,0.00
2018-03-16T01:13:17.730Z,0.00
2018-03-16T01:14:17.725Z,0.00
2018-03-16T01:15:17.722Z,0.00
2018-03-16T01:16:17.717Z,0.00
2018-03-16T01:17:17.713Z,0.00
2018-03-16T01:19:17.716Z,0.00
2018-03-16T01:20:17.710Z,0.00
2018-03-16T01:21:17.709Z,0.00
2018-03-16T01:22:17.702Z,0.00
2018-03-16T01:23:17.699Z,0.00
2018-03-16T01:24:17.695Z,0.00
2018-03-16T01:25:17.690Z,0.00
2018-03-16T01:26:17.685Z,0.00
2018-03-16T01:27:17.682Z,0.00
2018-03-16T01:28:17.682Z,0.00
2018-03-16T01:29:17.672Z,0.00
2018-03-16T01:30:17.668Z,0.00
2018-03-16T01:31:17.664Z,0.00
2018-03-16T01:32:17.662Z,0.00
2018-03-16T01:33:17.657Z,0.00
2018-03-16T01:34:17.650Z,0.00
2018-03-16T01:35:17.646Z,0.00
2018-03-16T01:36:17.644Z,0.00
2018-03-16T01:37:17.641Z,0.00
2018-03-16T01:38:17.635Z,0.00
2018-03-16T01:39:17.630Z,0.00
2018-03-16T01:40:17.630Z,0.00
2018-03-16T01:41:17.622Z,0.00
2018-03-16T01:42:17.618Z,0.00
2018-03-16T01:43:17.614Z,0.00
2018-03-16T01:44:17.611Z,0.00
2018-03-16T01:45:17.607Z,0.00
2018-03-16T01:46:17.603Z,0.00
2018-03-16T01:47:17.599Z,0.00
2018-03-16T01:48:17.595Z,0.00
2018-03-16T01:49:17.591Z,0.00
2018-03-16T01:50:17.587Z,0.00
2018-03-16T01:51:17.584Z,0.00
2018-03-16T01:52:17.580Z,0.00
2018-03-16T01:53:17.577Z,0.00
2018-03-16T01:54:17.571Z,0.00
2018-03-16T01:55:17.569Z,0.00
2018-03-16T01:56:17.564Z,0.00
2018-03-16T01:57:17.561Z,0.00
2018-03-16T01:58:17.557Z,0.00
2018-03-16T01:59:17.551Z,0.00
2018-03-16T02:00:17.548Z,0.00
2018-03-16T02:01:17.546Z,0.00
2018-03-16T02:02:17.541Z,0.00
2018-03-16T02:03:17.538Z,0.00
2018-03-16T02:04:17.533Z,0.00
2018-03-16T02:05:17.529Z,0.00
2018-03-16T02:06:17.526Z,0.00
2018-03-16T02:07:17.523Z,0.00
2018-03-16T02:08:17.519Z,0.00
2018-03-16T02:09:17.514Z,0.00
2018-03-16T02:10:17.511Z,0.00
2018-03-16T02:11:17.505Z,0.00
2018-03-16T02:12:17.504Z,0.00
2018-03-16T02:13:17.500Z,0.00
2018-03-16T02:14:17.495Z,0.00
2018-03-16T02:15:17.492Z,0.00
2018-03-16T02:16:17.488Z,0.00
2018-03-16T02:17:17.485Z,0.00
2018-03-16T02:18:17.480Z,0.00
2018-03-16T02:19:17.528Z,0.00
2018-03-16T02:20:17.473Z,0.00
2018-03-16T02:21:17.469Z,0.00
2018-03-16T02:22:17.467Z,0.00
2018-03-16T02:23:17.463Z,0.00
2018-03-16T02:24:17.459Z,0.00
2018-03-16T02:25:17.456Z,0.00
2018-03-16T02:26:17.450Z,0.00
2018-03-16T02:27:17.447Z,0.00
2018-03-16T02:28:17.444Z,0.00
2018-03-16T02:29:17.439Z,0.00
2018-03-16T02:30:17.436Z,0.00
2018-03-16T02:31:17.431Z,0.00
2018-03-16T02:32:17.428Z,0.00
2018-03-16T02:33:17.425Z,0.00
2018-03-16T02:34:17.422Z,0.00
2018-03-16T02:35:17.416Z,0.00
2018-03-16T02:36:17.414Z,0.00
2018-03-16T02:37:17.410Z,0.00
2018-03-16T02:38:17.406Z,0.00
2018-03-16T02:39:17.402Z,0.00
2018-03-16T02:40:17.397Z,0.00
2018-03-16T02:41:17.395Z,0.00
2018-03-16T02:42:17.390Z,0.00
2018-03-16T02:43:17.387Z,0.00
2018-03-16T02:44:17.382Z,0.00
2018-03-16T02:45:17.381Z,0.00
2018-03-16T02:46:17.377Z,0.00
2018-03-16T02:47:17.370Z,0.00
2018-03-16T02:48:17.367Z,0.00
2018-03-16T02:49:17.364Z,0.00
2018-03-16T02:50:17.359Z,0.00
2018-03-16T02:51:17.354Z,0.00
2018-03-16T02:52:17.350Z,0.00
2018-03-16T02:53:17.350Z,0.00
2018-03-16T02:54:17.341Z,0.00
2018-03-16T02:55:17.338Z,0.00
2018-03-16T02:56:17.336Z,0.00
2018-03-16T02:57:17.332Z,0.00
2018-03-16T02:58:17.327Z,0.00
2018-03-16T02:59:17.324Z,0.00
2018-03-16T03:00:17.320Z,0.00
2018-03-16T03:01:17.316Z,0.00
2018-03-16T03:02:17.310Z,0.00
2018-03-16T03:03:17.309Z,0.00
2018-03-16T03:04:17.305Z,0.00
2018-03-16T03:05:17.300Z,0.00
2018-03-16T03:06:17.296Z,0.00
2018-03-16T03:07:17.292Z,0.00
2018-03-16T03:08:17.287Z,0.00
2018-03-16T03:09:17.284Z,0.00
2018-03-16T03:10:17.280Z,0.00
2018-03-16T03:11:17.276Z,0.00
2018-03-16T03:12:17.274Z,0.00
2018-03-16T03:13:17.269Z,0.00
2018-03-16T03:14:17.266Z,0.00
2018-03-16T03:15:17.263Z,0.00
2018-03-16T03:16:17.257Z,0.00
2018-03-16T03:17:17.254Z,0.00
2018-03-16T03:18:17.250Z,0.00
2018-03-16T03:19:17.246Z,0.00
2018-03-16T03:20:17.243Z,0.00
2018-03-16T03:21:17.243Z,0.00
2018-03-16T03:22:17.235Z,0.00
2018-03-16T03:23:17.231Z,0.00
2018-03-16T03:24:17.229Z,0.00
2018-03-16T03:25:17.225Z,0.00
2018-03-16T03:26:17.220Z,0.00
2018-03-16T03:27:17.217Z,0.00
2018-03-16T03:28:17.212Z,0.00
2018-03-16T03:29:17.209Z,0.00
2018-03-16T03:30:17.206Z,0.00
2018-03-16T03:31:17.202Z,0.00
2018-03-16T03:32:17.199Z,0.00
2018-03-16T03:33:17.197Z,0.00
2018-03-16T03:34:17.230Z,0.00
2018-03-16T03:35:17.186Z,0.00
2018-03-16T03:36:17.186Z,0.00
2018-03-16T03:37:17.180Z,0.00
2018-03-16T03:38:17.176Z,0.00
2018-03-16T03:39:17.173Z,0.00
2018-03-16T03:40:17.170Z,0.00
2018-03-16T03:41:17.165Z,0.00
2018-03-16T03:42:17.162Z,0.00
2018-03-16T03:43:17.159Z,0.00
2018-03-16T03:44:17.154Z,0.00
2018-03-16T03:45:17.150Z,0.00
2018-03-16T03:46:17.146Z,0.00
2018-03-16T03:47:17.143Z,0.00
2018-03-16T03:48:17.139Z,0.00
2018-03-16T03:49:17.136Z,0.00
2018-03-16T03:50:17.131Z,0.00
2018-03-16T03:51:17.127Z,0.00
2018-03-16T03:52:17.125Z,0.00
2018-03-16T03:53:17.122Z,0.00
2018-03-16T03:54:17.117Z,0.00
2018-03-16T03:55:17.112Z,0.00
2018-03-16T03:56:17.110Z,0.00
2018-03-16T03:57:17.107Z,0.00
2018-03-16T03:58:17.102Z,0.00
2018-03-16T03:59:17.098Z,0.00
2018-03-16T04:00:17.094Z,0.00
2018-03-16T04:01:17.091Z,0.00
2018-03-16T04:02:17.087Z,0.00
2018-03-16T04:03:17.084Z,0.00
2018-03-16T04:04:17.080Z,0.00
2018-03-16T04:05:17.075Z,0.00
2018-03-16T04:06:17.070Z,0.00
2018-03-16T04:07:17.066Z,0.00
2018-03-16T04:08:17.065Z,0.00
2018-03-16T04:09:17.059Z,0.00
2018-03-16T04:10:17.056Z,0.00
2018-03-16T04:11:17.050Z,0.00
2018-03-16T04:12:17.048Z,0.00
2018-03-16T04:13:17.044Z,0.00
2018-03-16T04:14:17.040Z,0.00
2018-03-16T04:15:17.037Z,0.00
2018-03-16T04:16:17.032Z,0.00
2018-03-16T04:17:17.031Z,0.00
2018-03-16T04:18:17.025Z,0.00
2018-03-16T04:19:17.020Z,0.00
2018-03-16T04:20:17.019Z,0.00
2018-03-16T04:21:17.014Z,0.00
2018-03-16T04:22:17.009Z,0.00
2018-03-16T04:23:17.004Z,0.00
2018-03-16T04:24:17.002Z,0.00
2018-03-16T04:25:16.998Z,0.00
2018-03-16T04:26:16.993Z,0.00
2018-03-16T04:27:16.988Z,0.00
2018-03-16T04:28:16.988Z,0.00
2018-03-16T04:29:16.983Z,0.00
2018-03-16T04:30:16.979Z,0.00
2018-03-16T04:31:16.973Z,0.00
2018-03-16T04:32:16.969Z,0.00
2018-03-16T04:33:16.965Z,0.00
2018-03-16T04:34:16.962Z,0.00
2018-03-16T04:35:16.959Z,0.00
2018-03-16T04:36:16.953Z,0.00
2018-03-16T04:37:16.951Z,0.00
2018-03-16T04:38:16.944Z,0.00
2018-03-16T04:39:16.941Z,0.00
2018-03-16T04:40:16.938Z,0.00
2018-03-16T04:41:16.934Z,0.00
2018-03-16T04:42:16.928Z,0.00
2018-03-16T04:43:16.926Z,0.00
2018-03-16T04:44:16.922Z,0.00
2018-03-16T04:45:16.919Z,0.00
2018-03-16T04:46:16.912Z,0.00
2018-03-16T04:47:16.909Z,0.00
2018-03-16T04:48:16.905Z,0.00
2018-03-16T04:49:16.905Z,0.00
2018-03-16T04:50:16.896Z,0.00
2018-03-16T04:51:16.893Z,0.00
2018-03-16T04:52:16.889Z,0.00
2018-03-16T04:53:16.887Z,0.00
2018-03-16T04:54:16.881Z,0.00
2018-03-16T04:55:16.876Z,0.00
2018-03-16T04:56:16.873Z,0.00
2018-03-16T04:57:16.869Z,0.00
2018-03-16T04:58:16.863Z,0.00
2018-03-16T04:59:16.870Z,0.00
2018-03-16T05:00:16.857Z,0.00
2018-03-16T05:01:16.854Z,0.00
2018-03-16T05:02:16.851Z,0.00
2018-03-16T05:03:16.883Z,0.00
2018-03-16T05:04:16.840Z,0.00
2018-03-16T05:05:16.836Z,4.00
2018-03-16T05:06:16.830Z,4.00
2018-03-16T05:07:16.828Z,0.00
2018-03-16T05:08:16.824Z,4.00
2018-03-16T05:09:16.819Z,4.00
2018-03-16T05:10:16.816Z,4.00
2018-03-16T05:11:16.810Z,4.00
2018-03-16T05:12:16.807Z,4.00
2018-03-16T05:13:16.802Z,8.00
2018-03-16T05:14:16.804Z,12.00
2018-03-16T05:15:16.794Z,12.00
2018-03-16T05:16:16.789Z,16.00
2018-03-16T05:17:16.786Z,16.00
2018-03-16T05:18:16.781Z,20.00
2018-03-16T05:19:16.777Z,24.00
2018-03-16T05:20:16.774Z,28.00
2018-03-16T05:21:16.768Z,32.00
2018-03-16T05:22:16.764Z,36.00
2018-03-16T05:23:16.759Z,44.00
2018-03-16T05:24:16.755Z,48.00
2018-03-16T05:25:16.753Z,60.00
2018-03-16T05:26:16.746Z,68.00
2018-03-16T05:27:16.744Z,76.00
2018-03-16T05:28:16.740Z,92.00
2018-03-16T05:29:16.735Z,112.00
2018-03-16T05:30:16.730Z,128.00
2018-03-16T05:31:16.725Z,148.00
2018-03-16T05:32:16.722Z,160.00
2018-03-16T05:33:16.718Z,180.00
2018-03-16T05:34:16.727Z,200.00
2018-03-16T05:35:16.710Z,220.00
2018-03-16T05:36:16.706Z,244.00
2018-03-16T05:37:16.700Z,268.00
2018-03-16T05:38:16.696Z,292.00
2018-03-16T05:39:16.691Z,320.00
2018-03-16T05:40:16.687Z,348.00
2018-03-16T05:41:16.683Z,376.00
2018-03-16T05:42:16.679Z,408.00
2018-03-16T05:43:16.674Z,448.00
2018-03-16T05:44:16.710Z,484.00
2018-03-16T05:45:16.666Z,520.00
2018-03-16T05:46:16.660Z,564.00
2018-03-16T05:47:16.655Z,616.00
2018-03-16T05:48:16.652Z,660.00
2018-03-16T05:49:16.646Z,712.00
2018-03-16T05:50:16.642Z,764.00
2018-03-16T05:51:16.638Z,816.00
2018-03-16T05:52:16.635Z,868.00
2018-03-16T05:53:16.631Z,924.00
2018-03-16T05:54:16.623Z,988.00
2018-03-16T05:55:16.621Z,1056.00
2018-03-16T05:56:16.620Z,1132.00
2018-03-16T05:57:16.613Z,1196.00
2018-03-16T05:58:16.606Z,1260.00
2018-03-16T05:59:16.602Z,1300.00
2018-03-16T06:00:16.598Z,1348.00
2018-03-16T06:01:16.595Z,1400.00
2018-03-16T06:02:16.589Z,1452.00
2018-03-16T06:03:16.585Z,1508.00
2018-03-16T06:04:16.581Z,1564.00
2018-03-16T06:05:16.622Z,1616.00
2018-03-16T06:06:16.571Z,1668.00
2018-03-16T06:07:16.567Z,1732.00
2018-03-16T06:08:16.563Z,1792.00
2018-03-16T06:09:16.558Z,1844.00
2018-03-16T06:10:16.553Z,1900.00
2018-03-16T06:11:16.549Z,1940.00
2018-03-16T06:12:16.545Z,1988.00
2018-03-16T06:13:16.542Z,2016.00
2018-03-16T06:14:16.537Z,2044.00
2018-03-16T06:15:16.532Z,2084.00
2018-03-16T06:16:16.528Z,2140.00
2018-03-16T06:17:16.525Z,2192.00
2018-03-16T06:18:16.519Z,2252.00
2018-03-16T06:19:16.514Z,2308.00
2018-03-16T06:20:16.512Z,2356.00
2018-03-16T06:21:16.509Z,2408.00
2018-03-16T06:22:16.502Z,2460.00
2018-03-16T06:23:16.499Z,2512.00
2018-03-16T06:24:16.495Z,2580.00
2018-03-16T06:25:16.491Z,2628.00
2018-03-16T06:26:16.486Z,2680.00
2018-03-16T06:27:16.481Z,2772.00
2018-03-16T06:28:16.479Z,2872.00
2018-03-16T06:29:16.476Z,3000.00
2018-03-16T06:30:16.470Z,3156.00
2018-03-16T06:31:16.471Z,3264.00
2018-03-16T06:32:16.513Z,3368.00
2018-03-16T06:33:16.461Z,3480.00
2018-03-16T06:34:16.454Z,3600.00
2018-03-16T06:35:16.450Z,3880.00
2018-03-16T06:36:16.447Z,7036.00
2018-03-16T06:37:16.442Z,16672.00
2018-03-16T06:38:16.438Z,15392.00
2018-03-16T06:39:16.436Z,9912.00
2018-03-16T06:40:16.431Z,8476.00
2018-03-16T06:41:16.428Z,6816.00
2018-03-16T06:42:16.427Z,5616.00
2018-03-16T06:43:16.429Z,5116.00
2018-03-16T06:44:16.418Z,4964.00
2018-03-16T06:45:16.414Z,5348.00
2018-03-16T06:46:16.410Z,5464.00
2018-03-16T06:47:16.409Z,5760.00
2018-03-16T06:48:16.407Z,6316.00
2018-03-16T06:49:16.402Z,7184.00
2018-03-16T06:50:16.398Z,7760.00
2018-03-16T06:51:16.398Z,7364.00
2018-03-16T06:52:16.393Z,8108.00
2018-03-16T06:53:16.388Z,8668.00
2018-03-16T06:54:16.697Z,8788.00
2018-03-16T06:55:16.383Z,9772.00
2018-03-16T06:56:16.379Z,13264.00
2018-03-16T06:57:16.377Z,11924.00
2018-03-16T06:58:16.373Z,24608.00
2018-03-16T06:59:16.371Z,34624.00
2018-03-16T07:00:16.369Z,38432.00
2018-03-16T07:01:16.366Z,44192.00
2018-03-16T07:02:16.371Z,33952.00
2018-03-16T07:03:16.383Z,20512.00
2018-03-16T07:04:16.363Z,30560.00
2018-03-16T07:05:16.362Z,44576.00
2018-03-16T07:06:16.361Z,37280.00
2018-03-16T07:07:16.360Z,30464.00
2018-03-16T07:08:16.360Z,28352.00
2018-03-16T07:09:16.361Z,22688.00
2018-03-16T07:10:16.362Z,15400.00
2018-03-16T07:11:16.364Z,24928.00
2018-03-16T07:12:16.361Z,44288.00
2018-03-16T07:13:16.362Z,55936.00
2018-03-16T07:14:16.361Z,36864.00
2018-03-16T07:15:16.363Z,12252.00
2018-03-16T07:16:16.524Z,13728.00
2018-03-16T07:17:16.367Z,21600.00
2018-03-16T07:18:16.365Z,27808.00
2018-03-16T07:19:16.367Z,36864.00
2018-03-16T07:20:16.367Z,40608.00
2018-03-16T07:21:16.368Z,18656.00
2018-03-16T07:22:16.368Z,14236.00
2018-03-16T07:23:16.421Z,10464.00
2018-03-16T07:24:16.370Z,9748.00
2018-03-16T07:25:16.373Z,10460.00
2018-03-16T07:26:16.370Z,13904.00
2018-03-16T07:27:16.373Z,34880.00
2018-03-16T07:28:16.373Z,71264.00
2018-03-16T07:29:16.375Z,64416.00
2018-03-16T07:30:16.375Z,63200.00
2018-03-16T07:31:16.378Z,67840.00
2018-03-16T07:32:16.380Z,62912.00
2018-03-16T07:33:16.382Z,48768.00
2018-03-16T07:34:16.385Z,25472.00
2018-03-16T07:35:16.391Z,20224.00
2018-03-16T07:36:16.392Z,27744.00
2018-03-16T07:37:16.393Z,22272.00
2018-03-16T07:38:16.531Z,12488.00
2018-03-16T07:39:16.400Z,9536.00
2018-03-16T07:40:16.408Z,9540.00
2018-03-16T07:41:16.457Z,28672.00
2018-03-16T07:42:16.408Z,55040.00
2018-03-16T07:43:16.411Z,37600.00
2018-03-16T07:44:16.416Z,43104.00
2018-03-16T07:45:16.419Z,35936.00
2018-03-16T07:46:16.422Z,53408.00
2018-03-16T07:47:16.427Z,58496.00
2018-03-16T07:48:16.437Z,35328.00
2018-03-16T07:49:16.439Z,44800.00
2018-03-16T07:50:16.442Z,55680.00
2018-03-16T07:51:16.447Z,53696.00
2018-03-16T07:52:16.454Z,43904.00
2018-03-16T07:53:16.461Z,38912.00
2018-03-16T07:54:16.465Z,28512.00
2018-03-16T07:55:16.471Z,23744.00
2018-03-16T07:56:16.478Z,30624.00
2018-03-16T07:57:16.481Z,31840.00
2018-03-16T07:58:16.486Z,30432.00
2018-03-16T07:59:16.735Z,35360.00
2018-03-16T08:00:16.499Z,49312.00
2018-03-16T08:01:16.507Z,63936.00
2018-03-16T08:02:16.511Z,63840.00
2018-03-16T08:03:16.520Z,58592.00
2018-03-16T08:04:16.525Z,48288.00
2018-03-16T08:05:16.533Z,28704.00
2018-03-16T08:06:16.539Z,21760.00
2018-03-16T08:07:16.545Z,28736.00
2018-03-16T08:08:16.552Z,43232.00
2018-03-16T08:09:16.558Z,45120.00
2018-03-16T08:10:16.566Z,36576.00
2018-03-16T08:11:16.572Z,48352.00
2018-03-16T08:12:16.577Z,61280.00
2018-03-16T08:13:16.585Z,74304.00
2018-03-16T08:14:16.590Z,73824.00
2018-03-16T08:15:16.623Z,55392.00
2018-03-16T08:16:16.604Z,78976.00
2018-03-16T08:17:16.611Z,44736.00
2018-03-16T08:18:16.617Z,12284.00
2018-03-16T08:19:16.648Z,9952.00
2018-03-16T08:20:16.631Z,10764.00
2018-03-16T08:21:16.637Z,12756.00
2018-03-16T08:22:16.644Z,13064.00
2018-03-16T08:23:16.651Z,20704.00
2018-03-16T08:24:16.656Z,36000.00
2018-03-16T08:25:16.663Z,43168.00
2018-03-16T08:26:16.669Z,43424.00
2018-03-16T08:27:16.676Z,29376.00
2018-03-16T08:28:16.728Z,31840.00
2018-03-16T08:29:16.688Z,29184.00
2018-03-16T08:30:16.693Z,31808.00
2018-03-16T08:31:16.701Z,33888.00
2018-03-16T08:32:16.706Z,30048.00
2018-03-16T08:33:16.713Z,38848.00
2018-03-16T08:34:16.720Z,53888.00
2018-03-16T08:35:16.725Z,37472.00
2018-03-16T08:36:16.737Z,36928.00
2018-03-16T08:37:16.742Z,26400.00
2018-03-16T08:38:16.744Z,17184.00
2018-03-16T08:39:16.754Z,29568.00
2018-03-16T08:40:16.760Z,43552.00
2018-03-16T08:41:16.764Z,45312.00
2018-03-16T08:42:16.770Z,33312.00
2018-03-16T08:43:16.775Z,15612.00
2018-03-16T08:44:16.783Z,7536.00
2018-03-16T08:45:16.789Z,8452.00
2018-03-16T08:46:16.794Z,10352.00
2018-03-16T08:47:16.799Z,13416.00
2018-03-16T08:48:16.804Z,25696.00
2018-03-16T08:49:16.811Z,24480.00
2018-03-16T08:50:16.814Z,18432.00
2018-03-16T08:51:16.821Z,13872.00
2018-03-16T08:52:16.826Z,7232.00
2018-03-16T08:53:16.831Z,21984.00
2018-03-16T08:54:16.835Z,25440.00
2018-03-16T08:55:16.838Z,8632.00
2018-03-16T08:56:16.842Z,23008.00
2018-03-16T08:57:16.849Z,46912.00
2018-03-16T08:58:16.852Z,59168.00
2018-03-16T08:59:16.856Z,66528.00
2018-03-16T09:00:16.863Z,68576.00
2018-03-16T09:01:16.867Z,66848.00
2018-03-16T09:02:16.873Z,61376.00
2018-03-16T09:03:16.879Z,54496.00
2018-03-16T09:04:16.887Z,63872.00
2018-03-16T09:05:16.894Z,66976.00
2018-03-16T09:06:16.900Z,28096.00
2018-03-16T09:07:16.908Z,44448.00
2018-03-16T09:08:16.918Z,53120.00
2018-03-16T09:09:16.926Z,66176.00
2018-03-16T09:10:16.931Z,49216.00
2018-03-16T09:11:16.939Z,24864.00
2018-03-16T09:12:16.949Z,64128.00
2018-03-16T09:13:16.958Z,74560.00
2018-03-16T09:14:16.965Z,49856.00
2018-03-16T09:15:16.976Z,35776.00
2018-03-16T09:16:16.987Z,55456.00
2018-03-16T09:17:16.994Z,53888.00
2018-03-16T09:18:17.005Z,29088.00
2018-03-16T09:19:17.012Z,14292.00
2018-03-16T09:20:17.021Z,16736.00
2018-03-16T09:21:17.030Z,17856.00
2018-03-16T09:22:17.041Z,17568.00
2018-03-16T09:23:17.046Z,12392.00
2018-03-16T09:24:17.056Z,12192.00
2018-03-16T09:25:17.062Z,33216.00
2018-03-16T09:26:17.069Z,31360.00
2018-03-16T09:27:17.076Z,9740.00
2018-03-16T09:28:17.085Z,36416.00
2018-03-16T09:29:17.095Z,9436.00
2018-03-16T09:30:17.097Z,7508.00
2018-03-16T09:31:17.104Z,7440.00
2018-03-16T09:32:17.110Z,8108.00
2018-03-16T09:33:17.117Z,38880.00
2018-03-16T09:34:17.123Z,10292.00
2018-03-16T09:35:17.127Z,7892.00
2018-03-16T09:36:17.134Z,7920.00
2018-03-16T09:37:17.138Z,9544.00
2018-03-16T09:38:17.142Z,8500.00
2018-03-16T09:39:17.147Z,9320.00
2018-03-16T09:40:17.151Z,16644.00
2018-03-16T09:41:17.156Z,15388.00
2018-03-16T09:42:17.160Z,41024.00
2018-03-16T09:43:17.163Z,44224.00
2018-03-16T09:44:17.168Z,33728.00
2018-03-16T09:45:17.173Z,16136.00
2018-03-16T09:46:17.177Z,12144.00
2018-03-16T09:47:17.183Z,10112.00
2018-03-16T09:48:17.188Z,10412.00
2018-03-16T09:49:17.192Z,11172.00
2018-03-16T09:50:17.196Z,10296.00
2018-03-16T09:51:17.200Z,12412.00
2018-03-16T09:52:17.204Z,15792.00
2018-03-16T09:53:17.211Z,18656.00
2018-03-16T09:54:17.214Z,13056.00
2018-03-16T09:55:17.222Z,15072.00
2018-03-16T09:56:17.249Z,16800.00
2018-03-16T09:57:17.227Z,15068.00
2018-03-16T09:58:17.232Z,15944.00
2018-03-16T09:59:17.235Z,16564.00
2018-03-16T10:00:17.240Z,31360.00
2018-03-16T10:01:17.246Z,46016.00
2018-03-16T10:02:17.249Z,19328.00
2018-03-16T10:03:17.254Z,17728.00
2018-03-16T10:04:17.260Z,16928.00
2018-03-16T10:05:17.264Z,14728.00
2018-03-16T10:06:17.742Z,14136.00
2018-03-16T10:07:17.273Z,29376.00
2018-03-16T10:08:17.279Z,20640.00
2018-03-16T10:09:17.284Z,24608.00
2018-03-16T10:10:17.288Z,18208.00
2018-03-16T10:11:17.295Z,20128.00
2018-03-16T10:12:17.302Z,18464.00
2018-03-16T10:13:17.307Z,18944.00
2018-03-16T10:14:17.311Z,14868.00
2018-03-16T10:15:17.319Z,13108.00
2018-03-16T10:16:17.325Z,12624.00
2018-03-16T10:17:17.332Z,14748.00
2018-03-16T10:18:17.336Z,18272.00
2018-03-16T10:19:17.342Z,14572.00
2018-03-16T10:20:17.349Z,14052.00
2018-03-16T10:21:17.355Z,13020.00
2018-03-16T10:22:17.361Z,12472.00
2018-03-16T10:23:17.368Z,12268.00
2018-03-16T10:24:17.373Z,11784.00
2018-03-16T10:25:17.380Z,12796.00
2018-03-16T10:26:17.384Z,9096.00
2018-03-16T10:27:17.388Z,8404.00
2018-03-16T10:28:17.395Z,8372.00
2018-03-16T10:29:17.401Z,8548.00
2018-03-16T10:30:17.404Z,9124.00
2018-03-16T10:31:17.408Z,9940.00
2018-03-16T10:32:17.415Z,10068.00
2018-03-16T10:33:17.419Z,10048.00
2018-03-16T10:34:17.422Z,10088.00
2018-03-16T10:35:17.426Z,10528.00
2018-03-16T10:36:17.430Z,11460.00
2018-03-16T10:37:17.433Z,8740.00
2018-03-16T10:38:17.436Z,8192.00
2018-03-16T10:39:17.441Z,8448.00
2018-03-16T10:40:17.442Z,8784.00
2018-03-16T10:41:17.449Z,10924.00
2018-03-16T10:42:17.449Z,12536.00
2018-03-16T10:43:17.454Z,25856.00
2018-03-16T10:44:17.458Z,8928.00
2018-03-16T10:45:17.461Z,8232.00
2018-03-16T10:46:17.465Z,7632.00
2018-03-16T10:47:17.467Z,7172.00
2018-03-16T10:48:17.471Z,7588.00
2018-03-16T10:49:17.476Z,8248.00
2018-03-16T10:50:17.478Z,8708.00
2018-03-16T10:51:17.482Z,11240.00
2018-03-16T10:52:17.485Z,8216.00
2018-03-16T10:53:17.489Z,7188.00
2018-03-16T10:54:17.584Z,6696.00
2018-03-16T10:55:17.541Z,6492.00
2018-03-16T10:56:17.499Z,6476.00
2018-03-16T10:57:17.501Z,6472.00
2018-03-16T10:58:17.504Z,6732.00
2018-03-16T10:59:17.508Z,6988.00
2018-03-16T11:00:17.511Z,7192.00
2018-03-16T11:01:17.513Z,7136.00
2018-03-16T11:02:17.516Z,7356.00
2018-03-16T11:03:17.517Z,7052.00
2018-03-16T11:04:17.520Z,6684.00
2018-03-16T11:05:17.522Z,6040.00
2018-03-16T11:06:17.525Z,5644.00
2018-03-16T11:07:17.526Z,5228.00
2018-03-16T11:08:17.531Z,4888.00
2018-03-16T11:09:17.543Z,4744.00
2018-03-16T11:10:17.533Z,4700.00
2018-03-16T11:11:17.536Z,4608.00
2018-03-16T11:12:17.539Z,4432.00
2018-03-16T11:13:17.541Z,4236.00
2018-03-16T11:14:17.544Z,4016.00
2018-03-16T11:15:17.543Z,3888.00
2018-03-16T11:16:17.545Z,3816.00
2018-03-16T11:17:17.572Z,3764.00
2018-03-16T11:18:17.549Z,3760.00
2018-03-16T11:19:17.550Z,3496.00
2018-03-16T11:20:17.552Z,3188.00
2018-03-16T11:21:17.555Z,3244.00
2018-03-16T11:22:17.557Z,3380.00
2018-03-16T11:23:17.556Z,3620.00
2018-03-16T11:24:17.557Z,3848.00
2018-03-16T11:25:17.558Z,3980.00
2018-03-16T11:26:17.560Z,3948.00
2018-03-16T11:27:17.561Z,4000.00
2018-03-16T11:28:17.562Z,4244.00
2018-03-16T11:29:17.562Z,4456.00
2018-03-16T11:30:17.562Z,4576.00
2018-03-16T11:31:17.564Z,4744.00
2018-03-16T11:32:17.565Z,5068.00
2018-03-16T11:33:17.565Z,5460.00
2018-03-16T11:34:17.571Z,5884.00
2018-03-16T11:35:17.570Z,6424.00
2018-03-16T11:36:17.567Z,7568.00
2018-03-16T11:37:17.569Z,11300.00
2018-03-16T11:38:17.568Z,8640.00
2018-03-16T11:39:17.572Z,8172.00
2018-03-16T11:40:17.572Z,8224.00
2018-03-16T11:41:17.572Z,8720.00
2018-03-16T11:42:17.573Z,12984.00
2018-03-16T11:43:17.574Z,13580.00
2018-03-16T11:44:17.578Z,27648.00
2018-03-16T11:45:17.578Z,29696.00
2018-03-16T11:46:17.578Z,23264.00
2018-03-16T11:47:17.579Z,18432.00
2018-03-16T11:48:17.580Z,19808.00
2018-03-16T11:49:17.584Z,17312.00
2018-03-16T11:50:17.585Z,13728.00
2018-03-16T11:51:17.592Z,14880.00
2018-03-16T11:52:17.591Z,20544.00
2018-03-16T11:53:17.593Z,10856.00
2018-03-16T11:54:17.595Z,10156.00
2018-03-16T11:55:17.600Z,8704.00
2018-03-16T11:56:17.805Z,7708.00
2018-03-16T11:57:17.606Z,7124.00
2018-03-16T11:58:17.608Z,6520.00
2018-03-16T11:59:17.610Z,5840.00
2018-03-16T12:00:17.613Z,5236.00
2018-03-16T12:01:17.615Z,4488.00
2018-03-16T12:02:17.618Z,4088.00
2018-03-16T12:03:17.622Z,3768.00
2018-03-16T12:04:17.623Z,3732.00
2018-03-16T12:05:17.633Z,4124.00
2018-03-16T12:06:17.626Z,4652.00
2018-03-16T12:07:17.628Z,5304.00
2018-03-16T12:08:17.630Z,5840.00
2018-03-16T12:09:17.633Z,5988.00
2018-03-16T12:10:17.935Z,5636.00
2018-03-16T12:11:17.640Z,5224.00
2018-03-16T12:12:17.636Z,4876.00
2018-03-16T12:13:17.640Z,4648.00
2018-03-16T12:14:17.640Z,4648.00
2018-03-16T12:15:17.641Z,4748.00
2018-03-16T12:16:17.644Z,4720.00
2018-03-16T12:17:17.645Z,4772.00
2018-03-16T12:18:17.674Z,4884.00
2018-03-16T12:19:17.647Z,4988.00
2018-03-16T12:20:17.648Z,5012.00
2018-03-16T12:21:17.652Z,4984.00
2018-03-16T12:22:17.651Z,4852.00
2018-03-16T12:23:17.652Z,4888.00
2018-03-16T12:24:17.677Z,4804.00
2018-03-16T12:25:17.655Z,4772.00
2018-03-16T12:26:17.656Z,4912.00
2018-03-16T12:27:17.658Z,5220.00
2018-03-16T12:28:17.658Z,5284.00
2018-03-16T12:29:17.796Z,5112.00
2018-03-16T12:30:17.658Z,4724.00